sensor_id;sensor_type;location;lat;lon;timestamp;temperature;humidity
16441;DHT22;8330;-33.858;151.184;2024-01-25T00:01:59;30.90;99.90
16441;DHT22;8330;-33.858;151.184;2024-01-25T00:04:30;31.00;99.90
16441;DHT22;8330;-33.858;151.184;2024-01-25T00:07:01;31.00;99.90
16441;DHT22;8330;-33.858;151.184;2024-01-25T00:09:32;31.00;99.90
16441;DHT22;8330;-33.858;151.184;2024-01-25T00:12:03;31.20;99.90
16441;DHT22;8330;-33.858;151.184;2024-01-25T00:14:34;31.20;99.90
16441;DHT22;8330;-33.858;151.184;2024-01-25T00:17:07;31.30;99.90
16441;DHT22;8330;-33.858;151.184;2024-01-25T00:19:38;31.30;99.90
16441;DHT22;8330;-33.858;151.184;2024-01-25T00:22:11;31.40;99.90
16441;DHT22;8330;-33.858;151.184;2024-01-25T00:24:42;31.30;99.90
16441;DHT22;8330;-33.858;151.184;2024-01-25T00:27:13;31.40;99.90
16441;DHT22;8330;-33.858;151.184;2024-01-25T00:29:43;31.40;99.90
16441;DHT22;8330;-33.858;151.184;2024-01-25T00:32:15;31.40;99.90
16441;DHT22;8330;-33.858;151.184;2024-01-25T00:34:46;31.50;99.90
16441;DHT22;8330;-33.858;151.184;2024-01-25T00:37:17;31.50;99.90
16441;DHT22;8330;-33.858;151.184;2024-01-25T00:39:48;31.50;99.90
16441;DHT22;8330;-33.858;151.184;2024-01-25T00:42:22;31.60;99.90
16441;DHT22;8330;-33.858;151.184;2024-01-25T00:44:53;31.60;99.90
16441;DHT22;8330;-33.858;151.184;2024-01-25T00:47:27;31.70;99.90
16441;DHT22;8330;-33.858;151.184;2024-01-25T00:49:58;31.70;99.90
16441;DHT22;8330;-33.858;151.184;2024-01-25T00:52:29;31.80;99.90
16441;DHT22;8330;-33.858;151.184;2024-01-25T00:55:00;31.80;99.90
16441;DHT22;8330;-33.858;151.184;2024-01-25T00:57:31;31.90;99.90
16441;DHT22;8330;-33.858;151.184;2024-01-25T01:00:03;31.90;99.90
16441;DHT22;8330;-33.858;151.184;2024-01-25T01:02:42;31.90;99.90
16441;DHT22;8330;-33.858;151.184;2024-01-25T01:05:14;31.90;99.90
16441;DHT22;8330;-33.858;151.184;2024-01-25T01:07:46;31.90;99.90
16441;DHT22;8330;-33.858;151.184;2024-01-25T01:10:17;31.90;99.90
16441;DHT22;8330;-33.858;151.184;2024-01-25T01:12:48;31.90;99.90
16441;DHT22;8330;-33.858;151.184;2024-01-25T01:15:19;31.90;99.90
16441;DHT22;8330;-33.858;151.184;2024-01-25T01:17:52;31.80;99.90
16441;DHT22;8330;-33.858;151.184;2024-01-25T01:20:23;31.90;99.90
16441;DHT22;8330;-33.858;151.184;2024-01-25T01:22:54;31.90;99.90
16441;DHT22;8330;-33.858;151.184;2024-01-25T01:25:25;32.00;99.90
16441;DHT22;8330;-33.858;151.184;2024-01-25T01:27:55;32.00;99.90
16441;DHT22;8330;-33.858;151.184;2024-01-25T01:30:26;32.10;99.90
16441;DHT22;8330;-33.858;151.184;2024-01-25T01:32:59;32.10;99.90
16441;DHT22;8330;-33.858;151.184;2024-01-25T01:35:30;32.20;99.90
16441;DHT22;8330;-33.858;151.184;2024-01-25T01:38:01;32.10;99.90
16441;DHT22;8330;-33.858;151.184;2024-01-25T01:40:31;32.10;99.90
16441;DHT22;8330;-33.858;151.184;2024-01-25T01:43:02;32.10;99.90
16441;DHT22;8330;-33.858;151.184;2024-01-25T01:45:33;32.10;99.90
16441;DHT22;8330;-33.858;151.184;2024-01-25T01:48:07;32.10;99.90
16441;DHT22;8330;-33.858;151.184;2024-01-25T01:50:38;32.10;99.90
16441;DHT22;8330;-33.858;151.184;2024-01-25T01:53:09;32.00;99.90
16441;DHT22;8330;-33.858;151.184;2024-01-25T01:55:41;32.00;99.90
16441;DHT22;8330;-33.858;151.184;2024-01-25T01:58:12;31.90;99.90
16441;DHT22;8330;-33.858;151.184;2024-01-25T02:00:43;31.80;99.90
16441;DHT22;8330;-33.858;151.184;2024-01-25T02:03:18;31.70;99.90
16441;DHT22;8330;-33.858;151.184;2024-01-25T02:05:49;31.50;99.90
16441;DHT22;8330;-33.858;151.184;2024-01-25T02:08:19;31.30;99.90
16441;DHT22;8330;-33.858;151.184;2024-01-25T02:10:50;31.00;99.90
16441;DHT22;8330;-33.858;151.184;2024-01-25T02:13:21;30.80;99.90
16441;DHT22;8330;-33.858;151.184;2024-01-25T02:15:52;30.60;99.90
16441;DHT22;8330;-33.858;151.184;2024-01-25T02:18:24;30.40;99.90
16441;DHT22;8330;-33.858;151.184;2024-01-25T02:20:55;30.20;99.90
16441;DHT22;8330;-33.858;151.184;2024-01-25T02:23:28;30.10;99.90
16441;DHT22;8330;-33.858;151.184;2024-01-25T02:25:59;30.00;99.90
16441;DHT22;8330;-33.858;151.184;2024-01-25T02:28:30;29.80;99.90
16441;DHT22;8330;-33.858;151.184;2024-01-25T02:31:01;29.70;99.90
16441;DHT22;8330;-33.858;151.184;2024-01-25T02:33:34;29.70;99.90
16441;DHT22;8330;-33.858;151.184;2024-01-25T02:36:06;29.60;99.90
16441;DHT22;8330;-33.858;151.184;2024-01-25T02:38:38;29.30;99.90
16441;DHT22;8330;-33.858;151.184;2024-01-25T02:41:09;29.10;99.90
16441;DHT22;8330;-33.858;151.184;2024-01-25T02:43:40;29.00;99.90
16441;DHT22;8330;-33.858;151.184;2024-01-25T02:46:13;28.90;99.90
16441;DHT22;8330;-33.858;151.184;2024-01-25T02:48:44;28.70;99.90
16441;DHT22;8330;-33.858;151.184;2024-01-25T02:51:15;28.70;99.90
16441;DHT22;8330;-33.858;151.184;2024-01-25T02:53:47;28.60;99.90
16441;DHT22;8330;-33.858;151.184;2024-01-25T02:56:18;28.60;99.90
16441;DHT22;8330;-33.858;151.184;2024-01-25T02:58:49;28.60;99.90
16441;DHT22;8330;-33.858;151.184;2024-01-25T03:01:20;28.60;99.90
16441;DHT22;8330;-33.858;151.184;2024-01-25T03:03:50;28.60;99.90
16441;DHT22;8330;-33.858;151.184;2024-01-25T03:06:21;28.60;99.90
16441;DHT22;8330;-33.858;151.184;2024-01-25T03:08:54;28.60;99.90
16441;DHT22;8330;-33.858;151.184;2024-01-25T03:11:25;28.70;99.90
16441;DHT22;8330;-33.858;151.184;2024-01-25T03:13:56;28.80;99.90
16441;DHT22;8330;-33.858;151.184;2024-01-25T03:16:26;28.80;99.90
16441;DHT22;8330;-33.858;151.184;2024-01-25T03:18:57;28.80;99.90
16441;DHT22;8330;-33.858;151.184;2024-01-25T03:21:28;28.70;99.90
16441;DHT22;8330;-33.858;151.184;2024-01-25T03:24:01;28.70;99.90
16441;DHT22;8330;-33.858;151.184;2024-01-25T03:26:31;28.60;99.90
16441;DHT22;8330;-33.858;151.184;2024-01-25T03:29:02;28.70;99.90
16441;DHT22;8330;-33.858;151.184;2024-01-25T03:31:33;28.70;99.90
16441;DHT22;8330;-33.858;151.184;2024-01-25T03:34:04;28.70;99.90
16441;DHT22;8330;-33.858;151.184;2024-01-25T03:36:34;28.80;99.90
16441;DHT22;8330;-33.858;151.184;2024-01-25T03:39:09;28.80;99.90
16441;DHT22;8330;-33.858;151.184;2024-01-25T03:41:39;28.80;99.90
16441;DHT22;8330;-33.858;151.184;2024-01-25T03:44:10;28.80;99.90
16441;DHT22;8330;-33.858;151.184;2024-01-25T03:46:41;28.90;99.90
16441;DHT22;8330;-33.858;151.184;2024-01-25T03:49:12;28.80;99.90
16441;DHT22;8330;-33.858;151.184;2024-01-25T03:51:42;28.80;99.90
16441;DHT22;8330;-33.858;151.184;2024-01-25T03:54:15;28.80;99.90
16441;DHT22;8330;-33.858;151.184;2024-01-25T03:56:46;28.90;99.90
16441;DHT22;8330;-33.858;151.184;2024-01-25T03:59:17;29.00;99.90
16441;DHT22;8330;-33.858;151.184;2024-01-25T04:01:48;29.00;99.90
16441;DHT22;8330;-33.858;151.184;2024-01-25T04:04:19;29.00;99.90
16441;DHT22;8330;-33.858;151.184;2024-01-25T04:06:50;29.00;99.90
16441;DHT22;8330;-33.858;151.184;2024-01-25T04:09:24;28.90;99.90
16441;DHT22;8330;-33.858;151.184;2024-01-25T04:11:54;28.90;99.90
16441;DHT22;8330;-33.858;151.184;2024-01-25T04:14:25;28.90;99.90
16441;DHT22;8330;-33.858;151.184;2024-01-25T04:16:56;29.00;99.90
16441;DHT22;8330;-33.858;151.184;2024-01-25T04:19:27;29.00;99.90
16441;DHT22;8330;-33.858;151.184;2024-01-25T04:21:57;29.10;99.90
16441;DHT22;8330;-33.858;151.184;2024-01-25T04:24:30;29.20;99.90
16441;DHT22;8330;-33.858;151.184;2024-01-25T04:27:01;29.30;99.90
16441;DHT22;8330;-33.858;151.184;2024-01-25T04:29:32;29.40;99.90
16441;DHT22;8330;-33.858;151.184;2024-01-25T04:32:03;29.40;99.90
16441;DHT22;8330;-33.858;151.184;2024-01-25T04:34:35;29.50;99.90
16441;DHT22;8330;-33.858;151.184;2024-01-25T04:37:06;29.60;99.90
16441;DHT22;8330;-33.858;151.184;2024-01-25T04:39:38;29.70;99.90
16441;DHT22;8330;-33.858;151.184;2024-01-25T04:42:09;29.70;99.90
16441;DHT22;8330;-33.858;151.184;2024-01-25T04:44:40;29.80;99.90
16441;DHT22;8330;-33.858;151.184;2024-01-25T04:47:11;29.80;99.90
16441;DHT22;8330;-33.858;151.184;2024-01-25T04:49:42;29.70;99.90
16441;DHT22;8330;-33.858;151.184;2024-01-25T04:52:12;29.70;99.90
16441;DHT22;8330;-33.858;151.184;2024-01-25T04:54:46;29.70;99.90
16441;DHT22;8330;-33.858;151.184;2024-01-25T04:57:17;29.70;99.90
16441;DHT22;8330;-33.858;151.184;2024-01-25T04:59:48;29.80;99.90
16441;DHT22;8330;-33.858;151.184;2024-01-25T05:02:19;30.00;99.90
16441;DHT22;8330;-33.858;151.184;2024-01-25T05:04:49;30.00;99.90
16441;DHT22;8330;-33.858;151.184;2024-01-25T05:07:20;29.80;99.90
16441;DHT22;8330;-33.858;151.184;2024-01-25T05:09:53;29.90;99.90
16441;DHT22;8330;-33.858;151.184;2024-01-25T05:12:24;29.80;99.90
16441;DHT22;8330;-33.858;151.184;2024-01-25T05:14:54;29.80;99.90
16441;DHT22;8330;-33.858;151.184;2024-01-25T05:17:25;29.70;99.90
16441;DHT22;8330;-33.858;151.184;2024-01-25T05:19:56;29.70;99.90
16441;DHT22;8330;-33.858;151.184;2024-01-25T05:22:27;29.60;99.90
16441;DHT22;8330;-33.858;151.184;2024-01-25T05:24:59;29.60;99.90
16441;DHT22;8330;-33.858;151.184;2024-01-25T05:27:32;29.50;99.90
16441;DHT22;8330;-33.858;151.184;2024-01-25T05:30:03;29.40;99.90
16441;DHT22;8330;-33.858;151.184;2024-01-25T05:32:34;29.30;99.90
16441;DHT22;8330;-33.858;151.184;2024-01-25T05:35:06;29.20;99.90
16441;DHT22;8330;-33.858;151.184;2024-01-25T05:37:37;29.10;99.90
16441;DHT22;8330;-33.858;151.184;2024-01-25T05:40:10;29.10;99.90
16441;DHT22;8330;-33.858;151.184;2024-01-25T05:42:41;29.10;99.90
16441;DHT22;8330;-33.858;151.184;2024-01-25T05:45:12;29.10;99.90
16441;DHT22;8330;-33.858;151.184;2024-01-25T05:47:43;29.10;99.90
16441;DHT22;8330;-33.858;151.184;2024-01-25T05:50:14;29.10;99.90
16441;DHT22;8330;-33.858;151.184;2024-01-25T05:52:45;29.10;99.90
16441;DHT22;8330;-33.858;151.184;2024-01-25T05:55:18;29.00;99.90
16441;DHT22;8330;-33.858;151.184;2024-01-25T05:57:48;29.10;99.90
16441;DHT22;8330;-33.858;151.184;2024-01-25T06:00:22;29.10;99.90
16441;DHT22;8330;-33.858;151.184;2024-01-25T06:02:55;28.90;99.90
16441;DHT22;8330;-33.858;151.184;2024-01-25T06:05:26;29.00;99.90
16441;DHT22;8330;-33.858;151.184;2024-01-25T06:07:57;29.00;99.90
16441;DHT22;8330;-33.858;151.184;2024-01-25T06:10:30;29.00;99.90
16441;DHT22;8330;-33.858;151.184;2024-01-25T06:13:01;29.00;99.90
16441;DHT22;8330;-33.858;151.184;2024-01-25T06:15:32;29.10;99.90
16441;DHT22;8330;-33.858;151.184;2024-01-25T06:18:02;29.20;99.90
16441;DHT22;8330;-33.858;151.184;2024-01-25T06:20:33;29.40;99.90
16441;DHT22;8330;-33.858;151.184;2024-01-25T06:23:04;29.30;99.90
16441;DHT22;8330;-33.858;151.184;2024-01-25T06:25:37;29.40;99.90
16441;DHT22;8330;-33.858;151.184;2024-01-25T06:28:08;29.40;99.90
16441;DHT22;8330;-33.858;151.184;2024-01-25T06:30:39;29.20;99.90
16441;DHT22;8330;-33.858;151.184;2024-01-25T06:33:10;29.10;99.90
16441;DHT22;8330;-33.858;151.184;2024-01-25T06:35:41;28.90;99.90
16441;DHT22;8330;-33.858;151.184;2024-01-25T06:38:13;28.90;99.90
16441;DHT22;8330;-33.858;151.184;2024-01-25T06:40:46;28.80;99.90
16441;DHT22;8330;-33.858;151.184;2024-01-25T06:43:17;28.80;99.90
16441;DHT22;8330;-33.858;151.184;2024-01-25T06:45:48;28.80;99.90
16441;DHT22;8330;-33.858;151.184;2024-01-25T06:48:19;28.70;99.90
16441;DHT22;8330;-33.858;151.184;2024-01-25T06:50:51;28.70;99.90
16441;DHT22;8330;-33.858;151.184;2024-01-25T06:53:22;28.70;99.90
16441;DHT22;8330;-33.858;151.184;2024-01-25T06:55:55;28.70;99.90
16441;DHT22;8330;-33.858;151.184;2024-01-25T06:58:27;28.60;99.90
16441;DHT22;8330;-33.858;151.184;2024-01-25T07:00:58;28.60;99.90
16441;DHT22;8330;-33.858;151.184;2024-01-25T07:03:29;28.60;99.90
16441;DHT22;8330;-33.858;151.184;2024-01-25T07:06:00;28.60;99.90
16441;DHT22;8330;-33.858;151.184;2024-01-25T07:08:33;28.60;99.90
16441;DHT22;8330;-33.858;151.184;2024-01-25T07:11:06;28.60;99.90
16441;DHT22;8330;-33.858;151.184;2024-01-25T07:13:37;28.60;99.90
16441;DHT22;8330;-33.858;151.184;2024-01-25T07:16:08;28.50;99.90
16441;DHT22;8330;-33.858;151.184;2024-01-25T07:18:39;28.50;99.90
16441;DHT22;8330;-33.858;151.184;2024-01-25T07:21:11;28.50;99.90
16441;DHT22;8330;-33.858;151.184;2024-01-25T07:23:42;28.50;99.90
16441;DHT22;8330;-33.858;151.184;2024-01-25T07:26:20;28.50;99.90
16441;DHT22;8330;-33.858;151.184;2024-01-25T07:28:53;28.50;99.90
16441;DHT22;8330;-33.858;151.184;2024-01-25T07:31:26;28.40;99.90
16441;DHT22;8330;-33.858;151.184;2024-01-25T07:33:57;28.40;99.90
16441;DHT22;8330;-33.858;151.184;2024-01-25T07:36:28;28.30;99.90
16441;DHT22;8330;-33.858;151.184;2024-01-25T07:39:00;28.30;99.90
16441;DHT22;8330;-33.858;151.184;2024-01-25T07:41:33;28.30;99.90
16441;DHT22;8330;-33.858;151.184;2024-01-25T07:44:04;28.30;99.90
16441;DHT22;8330;-33.858;151.184;2024-01-25T07:46:35;28.30;99.90
16441;DHT22;8330;-33.858;151.184;2024-01-25T07:49:06;28.30;99.90
16441;DHT22;8330;-33.858;151.184;2024-01-25T07:51:38;28.20;99.90
16441;DHT22;8330;-33.858;151.184;2024-01-25T07:54:09;28.20;99.90
16441;DHT22;8330;-33.858;151.184;2024-01-25T07:56:42;28.20;99.90
16441;DHT22;8330;-33.858;151.184;2024-01-25T07:59:13;28.20;99.90
16441;DHT22;8330;-33.858;151.184;2024-01-25T08:01:44;28.20;99.90
16441;DHT22;8330;-33.858;151.184;2024-01-25T08:04:16;28.10;99.90
16441;DHT22;8330;-33.858;151.184;2024-01-25T08:06:47;28.20;99.90
16441;DHT22;8330;-33.858;151.184;2024-01-25T08:09:18;28.20;99.90
16441;DHT22;8330;-33.858;151.184;2024-01-25T08:11:51;28.20;99.90
16441;DHT22;8330;-33.858;151.184;2024-01-25T08:14:23;28.20;99.90
16441;DHT22;8330;-33.858;151.184;2024-01-25T08:16:54;28.20;99.90
16441;DHT22;8330;-33.858;151.184;2024-01-25T08:19:25;28.20;99.90
16441;DHT22;8330;-33.858;151.184;2024-01-25T08:21:56;28.10;99.90
16441;DHT22;8330;-33.858;151.184;2024-01-25T08:24:30;28.10;99.90
16441;DHT22;8330;-33.858;151.184;2024-01-25T08:27:03;28.10;99.90
16441;DHT22;8330;-33.858;151.184;2024-01-25T08:29:35;28.10;99.90
16441;DHT22;8330;-33.858;151.184;2024-01-25T08:32:07;28.10;99.90
16441;DHT22;8330;-33.858;151.184;2024-01-25T08:34:39;28.10;99.90
16441;DHT22;8330;-33.858;151.184;2024-01-25T08:37:10;28.10;99.90
16441;DHT22;8330;-33.858;151.184;2024-01-25T08:39:41;28.10;99.90
16441;DHT22;8330;-33.858;151.184;2024-01-25T08:42:16;28.10;99.90
16441;DHT22;8330;-33.858;151.184;2024-01-25T08:44:48;28.00;99.90
16441;DHT22;8330;-33.858;151.184;2024-01-25T08:47:19;28.00;99.90
16441;DHT22;8330;-33.858;151.184;2024-01-25T08:49:50;28.00;99.90
16441;DHT22;8330;-33.858;151.184;2024-01-25T08:52:21;28.00;99.90
16441;DHT22;8330;-33.858;151.184;2024-01-25T08:54:52;28.00;99.90
16441;DHT22;8330;-33.858;151.184;2024-01-25T08:57:25;28.00;99.90
16441;DHT22;8330;-33.858;151.184;2024-01-25T08:59:56;28.00;99.90
16441;DHT22;8330;-33.858;151.184;2024-01-25T09:02:28;27.90;99.90
16441;DHT22;8330;-33.858;151.184;2024-01-25T09:05:00;28.00;99.90
16441;DHT22;8330;-33.858;151.184;2024-01-25T09:07:31;27.90;99.90
16441;DHT22;8330;-33.858;151.184;2024-01-25T09:10:03;27.90;99.90
16441;DHT22;8330;-33.858;151.184;2024-01-25T09:12:37;27.90;99.90
16441;DHT22;8330;-33.858;151.184;2024-01-25T09:15:08;27.90;99.90
16441;DHT22;8330;-33.858;151.184;2024-01-25T09:17:40;27.90;99.90
16441;DHT22;8330;-33.858;151.184;2024-01-25T09:20:11;27.90;99.90
16441;DHT22;8330;-33.858;151.184;2024-01-25T09:22:43;27.90;99.90
16441;DHT22;8330;-33.858;151.184;2024-01-25T09:25:14;27.80;99.90
16441;DHT22;8330;-33.858;151.184;2024-01-25T09:27:47;27.80;99.90
16441;DHT22;8330;-33.858;151.184;2024-01-25T09:30:19;27.80;99.90
16441;DHT22;8330;-33.858;151.184;2024-01-25T09:32:50;27.80;99.90
16441;DHT22;8330;-33.858;151.184;2024-01-25T09:35:21;27.80;99.90
16441;DHT22;8330;-33.858;151.184;2024-01-25T09:37:52;27.80;99.90
16441;DHT22;8330;-33.858;151.184;2024-01-25T09:40:23;27.80;99.90
16441;DHT22;8330;-33.858;151.184;2024-01-25T09:42:56;27.80;99.90
16441;DHT22;8330;-33.858;151.184;2024-01-25T09:45:27;27.80;99.90
16441;DHT22;8330;-33.858;151.184;2024-01-25T09:47:57;27.80;99.90
16441;DHT22;8330;-33.858;151.184;2024-01-25T09:50:28;27.80;99.90
16441;DHT22;8330;-33.858;151.184;2024-01-25T09:53:01;27.80;99.90
16441;DHT22;8330;-33.858;151.184;2024-01-25T09:55:33;27.80;99.90
16441;DHT22;8330;-33.858;151.184;2024-01-25T09:58:08;27.80;99.90
16441;DHT22;8330;-33.858;151.184;2024-01-25T10:00:39;27.80;99.90
16441;DHT22;8330;-33.858;151.184;2024-01-25T10:03:10;27.70;99.90
16441;DHT22;8330;-33.858;151.184;2024-01-25T10:05:41;27.80;99.90
16441;DHT22;8330;-33.858;151.184;2024-01-25T10:08:14;27.80;99.90
16441;DHT22;8330;-33.858;151.184;2024-01-25T10:10:46;27.80;99.90
16441;DHT22;8330;-33.858;151.184;2024-01-25T10:13:19;27.80;99.90
16441;DHT22;8330;-33.858;151.184;2024-01-25T10:15:49;27.80;99.90
16441;DHT22;8330;-33.858;151.184;2024-01-25T10:18:21;27.80;99.90
16441;DHT22;8330;-33.858;151.184;2024-01-25T10:20:53;27.90;99.90
16441;DHT22;8330;-33.858;151.184;2024-01-25T10:23:24;27.80;99.90
16441;DHT22;8330;-33.858;151.184;2024-01-25T10:25:56;27.90;99.90
16441;DHT22;8330;-33.858;151.184;2024-01-25T10:28:28;27.90;99.90
16441;DHT22;8330;-33.858;151.184;2024-01-25T10:31:02;27.90;99.90
16441;DHT22;8330;-33.858;151.184;2024-01-25T10:33:34;28.00;99.90
16441;DHT22;8330;-33.858;151.184;2024-01-25T10:36:09;28.00;99.90
16441;DHT22;8330;-33.858;151.184;2024-01-25T10:38:42;28.00;99.90
16441;DHT22;8330;-33.858;151.184;2024-01-25T10:41:14;28.00;99.90
16441;DHT22;8330;-33.858;151.184;2024-01-25T10:43:47;28.00;99.90
16441;DHT22;8330;-33.858;151.184;2024-01-25T10:46:18;28.00;99.90
16441;DHT22;8330;-33.858;151.184;2024-01-25T10:48:49;28.00;99.90
16441;DHT22;8330;-33.858;151.184;2024-01-25T10:51:21;28.00;99.90
16441;DHT22;8330;-33.858;151.184;2024-01-25T10:53:52;28.00;99.90
16441;DHT22;8330;-33.858;151.184;2024-01-25T10:56:23;27.90;99.90
16441;DHT22;8330;-33.858;151.184;2024-01-25T10:58:56;27.90;99.90
16441;DHT22;8330;-33.858;151.184;2024-01-25T11:01:28;27.90;99.90
16441;DHT22;8330;-33.858;151.184;2024-01-25T11:03:59;27.80;99.90
16441;DHT22;8330;-33.858;151.184;2024-01-25T11:06:30;27.90;99.90
16441;DHT22;8330;-33.858;151.184;2024-01-25T11:09:07;27.80;99.90
16441;DHT22;8330;-33.858;151.184;2024-01-25T11:11:39;27.80;99.90
16441;DHT22;8330;-33.858;151.184;2024-01-25T11:14:16;27.80;99.90
16441;DHT22;8330;-33.858;151.184;2024-01-25T11:16:47;27.80;99.90
16441;DHT22;8330;-33.858;151.184;2024-01-25T11:19:19;27.80;99.90
16441;DHT22;8330;-33.858;151.184;2024-01-25T11:21:50;27.80;99.90
16441;DHT22;8330;-33.858;151.184;2024-01-25T11:24:22;27.70;99.90
16441;DHT22;8330;-33.858;151.184;2024-01-25T11:26:55;27.70;99.90
16441;DHT22;8330;-33.858;151.184;2024-01-25T11:29:27;27.60;99.90
16441;DHT22;8330;-33.858;151.184;2024-01-25T11:31:58;27.50;99.90
16441;DHT22;8330;-33.858;151.184;2024-01-25T11:34:29;27.40;99.90
16441;DHT22;8330;-33.858;151.184;2024-01-25T11:37:01;27.50;99.90
16441;DHT22;8330;-33.858;151.184;2024-01-25T11:39:33;27.40;99.90
16441;DHT22;8330;-33.858;151.184;2024-01-25T11:42:04;27.50;99.90
16441;DHT22;8330;-33.858;151.184;2024-01-25T11:44:37;27.50;99.90
16441;DHT22;8330;-33.858;151.184;2024-01-25T11:47:08;27.60;99.90
16441;DHT22;8330;-33.858;151.184;2024-01-25T11:49:40;27.60;99.90
16441;DHT22;8330;-33.858;151.184;2024-01-25T11:52:11;27.60;99.90
16441;DHT22;8330;-33.858;151.184;2024-01-25T11:54:42;27.70;99.90
16441;DHT22;8330;-33.858;151.184;2024-01-25T11:57:12;27.70;99.90
16441;DHT22;8330;-33.858;151.184;2024-01-25T11:59:46;27.70;99.90
16441;DHT22;8330;-33.858;151.184;2024-01-25T12:02:17;27.70;99.90
16441;DHT22;8330;-33.858;151.184;2024-01-25T12:04:48;27.80;99.90
16441;DHT22;8330;-33.858;151.184;2024-01-25T12:07:21;27.80;99.90
16441;DHT22;8330;-33.858;151.184;2024-01-25T12:09:59;27.70;99.90
16441;DHT22;8330;-33.858;151.184;2024-01-25T12:12:30;27.70;99.90
16441;DHT22;8330;-33.858;151.184;2024-01-25T12:15:05;27.70;99.90
16441;DHT22;8330;-33.858;151.184;2024-01-25T12:17:37;27.70;99.90
16441;DHT22;8330;-33.858;151.184;2024-01-25T12:20:09;27.80;99.90
16441;DHT22;8330;-33.858;151.184;2024-01-25T12:22:41;27.70;99.90
16441;DHT22;8330;-33.858;151.184;2024-01-25T12:25:11;27.70;99.90
16441;DHT22;8330;-33.858;151.184;2024-01-25T12:27:43;27.70;99.90
16441;DHT22;8330;-33.858;151.184;2024-01-25T12:30:16;27.70;99.90
16441;DHT22;8330;-33.858;151.184;2024-01-25T12:32:49;27.70;99.90
16441;DHT22;8330;-33.858;151.184;2024-01-25T12:35:20;27.70;99.90
16441;DHT22;8330;-33.858;151.184;2024-01-25T12:37:51;27.70;99.90
16441;DHT22;8330;-33.858;151.184;2024-01-25T12:40:22;27.70;99.90
16441;DHT22;8330;-33.858;151.184;2024-01-25T12:42:52;27.70;99.90
16441;DHT22;8330;-33.858;151.184;2024-01-25T12:45:25;27.70;99.90
16441;DHT22;8330;-33.858;151.184;2024-01-25T12:47:56;27.70;99.90
16441;DHT22;8330;-33.858;151.184;2024-01-25T12:50:27;27.60;99.90
16441;DHT22;8330;-33.858;151.184;2024-01-25T12:52:58;27.60;99.90
16441;DHT22;8330;-33.858;151.184;2024-01-25T12:55:30;27.60;99.90
16441;DHT22;8330;-33.858;151.184;2024-01-25T12:58:01;27.60;99.90
16441;DHT22;8330;-33.858;151.184;2024-01-25T13:00:34;27.60;99.90
16441;DHT22;8330;-33.858;151.184;2024-01-25T13:03:04;27.50;99.90
16441;DHT22;8330;-33.858;151.184;2024-01-25T13:05:35;27.50;99.90
16441;DHT22;8330;-33.858;151.184;2024-01-25T13:08:07;27.50;99.90
16441;DHT22;8330;-33.858;151.184;2024-01-25T13:10:38;27.50;99.90
16441;DHT22;8330;-33.858;151.184;2024-01-25T13:13:10;27.50;99.90
16441;DHT22;8330;-33.858;151.184;2024-01-25T13:15:43;27.50;99.90
16441;DHT22;8330;-33.858;151.184;2024-01-25T13:18:14;27.50;99.90
16441;DHT22;8330;-33.858;151.184;2024-01-25T13:20:44;27.50;99.90
16441;DHT22;8330;-33.858;151.184;2024-01-25T13:23:15;27.50;99.90
16441;DHT22;8330;-33.858;151.184;2024-01-25T13:25:46;27.40;99.90
16441;DHT22;8330;-33.858;151.184;2024-01-25T13:28:17;27.40;99.90
16441;DHT22;8330;-33.858;151.184;2024-01-25T13:30:49;27.40;99.90
16441;DHT22;8330;-33.858;151.184;2024-01-25T13:33:21;27.40;99.90
16441;DHT22;8330;-33.858;151.184;2024-01-25T13:35:53;27.40;99.90
16441;DHT22;8330;-33.858;151.184;2024-01-25T13:38:24;27.40;99.90
16441;DHT22;8330;-33.858;151.184;2024-01-25T13:40:55;27.40;99.90
16441;DHT22;8330;-33.858;151.184;2024-01-25T13:43:26;27.30;99.90
16441;DHT22;8330;-33.858;151.184;2024-01-25T13:45:58;27.40;99.90
16441;DHT22;8330;-33.858;151.184;2024-01-25T13:48:32;27.40;99.90
16441;DHT22;8330;-33.858;151.184;2024-01-25T13:51:03;27.30;99.90
16441;DHT22;8330;-33.858;151.184;2024-01-25T13:53:34;27.40;99.90
16441;DHT22;8330;-33.858;151.184;2024-01-25T13:56:05;27.40;99.90
16441;DHT22;8330;-33.858;151.184;2024-01-25T13:58:35;27.30;99.90
16441;DHT22;8330;-33.858;151.184;2024-01-25T14:01:08;27.30;99.90
16441;DHT22;8330;-33.858;151.184;2024-01-25T14:03:39;27.30;99.90
16441;DHT22;8330;-33.858;151.184;2024-01-25T14:06:09;27.20;99.90
16441;DHT22;8330;-33.858;151.184;2024-01-25T14:08:40;27.20;99.90
16441;DHT22;8330;-33.858;151.184;2024-01-25T14:11:11;27.20;99.90
16441;DHT22;8330;-33.858;151.184;2024-01-25T14:13:42;27.10;99.90
16441;DHT22;8330;-33.858;151.184;2024-01-25T14:16:15;27.10;99.90
16441;DHT22;8330;-33.858;151.184;2024-01-25T14:18:46;27.00;99.90
16441;DHT22;8330;-33.858;151.184;2024-01-25T14:21:17;27.00;99.90
16441;DHT22;8330;-33.858;151.184;2024-01-25T14:23:48;27.00;99.90
16441;DHT22;8330;-33.858;151.184;2024-01-25T14:26:19;27.00;99.90
16441;DHT22;8330;-33.858;151.184;2024-01-25T14:28:50;26.90;99.90
16441;DHT22;8330;-33.858;151.184;2024-01-25T14:31:22;27.00;99.90
16441;DHT22;8330;-33.858;151.184;2024-01-25T14:33:53;26.90;99.90
16441;DHT22;8330;-33.858;151.184;2024-01-25T14:36:24;26.90;99.90
16441;DHT22;8330;-33.858;151.184;2024-01-25T14:38:55;27.00;99.90
16441;DHT22;8330;-33.858;151.184;2024-01-25T14:41:25;26.90;99.90
16441;DHT22;8330;-33.858;151.184;2024-01-25T14:43:56;27.00;99.90
16441;DHT22;8330;-33.858;151.184;2024-01-25T14:46:29;26.90;99.90
16441;DHT22;8330;-33.858;151.184;2024-01-25T14:49:00;26.90;99.90
16441;DHT22;8330;-33.858;151.184;2024-01-25T14:51:30;26.90;99.90
16441;DHT22;8330;-33.858;151.184;2024-01-25T14:54:01;26.90;99.90
16441;DHT22;8330;-33.858;151.184;2024-01-25T14:56:32;26.80;99.90
16441;DHT22;8330;-33.858;151.184;2024-01-25T14:59:03;26.80;99.90
16441;DHT22;8330;-33.858;151.184;2024-01-25T15:01:36;26.80;99.90
16441;DHT22;8330;-33.858;151.184;2024-01-25T15:04:06;26.70;99.90
16441;DHT22;8330;-33.858;151.184;2024-01-25T15:06:37;26.70;99.90
16441;DHT22;8330;-33.858;151.184;2024-01-25T15:09:08;26.70;99.90
16441;DHT22;8330;-33.858;151.184;2024-01-25T15:11:39;26.70;99.90
16441;DHT22;8330;-33.858;151.184;2024-01-25T15:14:10;26.70;99.90
16441;DHT22;8330;-33.858;151.184;2024-01-25T15:16:42;26.60;99.90
16441;DHT22;8330;-33.858;151.184;2024-01-25T15:19:13;26.60;99.90
16441;DHT22;8330;-33.858;151.184;2024-01-25T15:21:44;26.60;99.90
16441;DHT22;8330;-33.858;151.184;2024-01-25T15:24:14;26.60;99.90
16441;DHT22;8330;-33.858;151.184;2024-01-25T15:26:45;26.60;99.90
16441;DHT22;8330;-33.858;151.184;2024-01-25T15:29:16;26.60;99.90